sensor_id;sensor_type;location;lat;lon;timestamp;P1;durP1;ratioP1;P2;durP2;ratioP2
20619;SDS011;10469;42.720;23.252;2022-12-07T00:00:30;27.95;;;16.45;;
20619;SDS011;10469;42.720;23.252;2022-12-07T00:02:55;34.53;;;18.08;;
20619;SDS011;10469;42.720;23.252;2022-12-07T00:05:21;34.38;;;17.00;;
20619;SDS011;10469;42.720;23.252;2022-12-07T00:07:46;30.67;;;16.88;;
20619;SDS011;10469;42.720;23.252;2022-12-07T00:10:12;32.88;;;17.15;;
20619;SDS011;10469;42.720;23.252;2022-12-07T00:12:37;31.40;;;17.27;;
20619;SDS011;10469;42.720;23.252;2022-12-07T00:15:03;35.28;;;18.27;;
20619;SDS011;10469;42.720;23.252;2022-12-07T00:17:28;35.53;;;18.05;;
20619;SDS011;10469;42.720;23.252;2022-12-07T00:19:54;35.15;;;17.98;;
20619;SDS011;10469;42.720;23.252;2022-12-07T00:22:19;40.58;;;18.20;;
20619;SDS011;10469;42.720;23.252;2022-12-07T00:24:45;35.58;;;17.33;;
20619;SDS011;10469;42.720;23.252;2022-12-07T00:27:10;31.70;;;17.95;;
20619;SDS011;10469;42.720;23.252;2022-12-07T00:29:36;31.83;;;16.63;;
20619;SDS011;10469;42.720;23.252;2022-12-07T00:32:02;37.58;;;18.80;;
20619;SDS011;10469;42.720;23.252;2022-12-07T00:34:28;36.10;;;18.48;;
20619;SDS011;10469;42.720;23.252;2022-12-07T00:36:53;33.42;;;18.58;;
20619;SDS011;10469;42.720;23.252;2022-12-07T00:39:19;38.95;;;18.52;;
20619;SDS011;10469;42.720;23.252;2022-12-07T00:41:44;33.20;;;19.50;;
20619;SDS011;10469;42.720;23.252;2022-12-07T00:44:10;35.55;;;19.55;;
20619;SDS011;10469;42.720;23.252;2022-12-07T00:46:35;34.88;;;18.90;;
20619;SDS011;10469;42.720;23.252;2022-12-07T00:49:01;39.47;;;18.50;;
20619;SDS011;10469;42.720;23.252;2022-12-07T00:51:26;33.78;;;18.10;;
20619;SDS011;10469;42.720;23.252;2022-12-07T00:53:52;34.95;;;17.67;;
20619;SDS011;10469;42.720;23.252;2022-12-07T00:56:19;36.38;;;19.33;;
20619;SDS011;10469;42.720;23.252;2022-12-07T00:58:56;37.28;;;18.90;;
20619;SDS011;10469;42.720;23.252;2022-12-07T01:01:23;35.47;;;17.85;;
20619;SDS011;10469;42.720;23.252;2022-12-07T01:03:50;36.83;;;19.45;;
20619;SDS011;10469;42.720;23.252;2022-12-07T01:06:16;33.30;;;18.95;;
20619;SDS011;10469;42.720;23.252;2022-12-07T01:08:43;36.58;;;19.50;;
20619;SDS011;10469;42.720;23.252;2022-12-07T01:11:09;37.70;;;19.73;;
20619;SDS011;10469;42.720;23.252;2022-12-07T01:13:39;38.80;;;20.75;;
20619;SDS011;10469;42.720;23.252;2022-12-07T01:16:06;40.30;;;20.20;;
20619;SDS011;10469;42.720;23.252;2022-12-07T01:18:33;38.00;;;20.42;;
20619;SDS011;10469;42.720;23.252;2022-12-07T01:21:00;41.30;;;20.08;;
20619;SDS011;10469;42.720;23.252;2022-12-07T01:23:28;35.42;;;20.00;;
20619;SDS011;10469;42.720;23.252;2022-12-07T01:25:58;38.85;;;21.10;;
20619;SDS011;10469;42.720;23.252;2022-12-07T01:28:24;38.95;;;21.80;;
20619;SDS011;10469;42.720;23.252;2022-12-07T01:31:01;40.85;;;21.13;;
20619;SDS011;10469;42.720;23.252;2022-12-07T01:33:29;35.35;;;19.67;;
20619;SDS011;10469;42.720;23.252;2022-12-07T01:38:49;40.65;;;21.35;;
20619;SDS011;10469;42.720;23.252;2022-12-07T01:41:19;41.53;;;21.58;;
20619;SDS011;10469;42.720;23.252;2022-12-07T01:46:36;37.00;;;21.52;;
20619;SDS011;10469;42.720;23.252;2022-12-07T01:49:02;40.00;;;21.77;;
20619;SDS011;10469;42.720;23.252;2022-12-07T01:51:31;37.83;;;20.92;;
20619;SDS011;10469;42.720;23.252;2022-12-07T01:53:56;39.67;;;22.13;;
20619;SDS011;10469;42.720;23.252;2022-12-07T01:56:24;40.10;;;20.48;;
20619;SDS011;10469;42.720;23.252;2022-12-07T01:58:52;38.97;;;21.73;;
20619;SDS011;10469;42.720;23.252;2022-12-07T02:01:19;39.15;;;22.15;;
20619;SDS011;10469;42.720;23.252;2022-12-07T02:03:45;37.15;;;20.92;;
20619;SDS011;10469;42.720;23.252;2022-12-07T02:06:11;42.85;;;21.30;;
20619;SDS011;10469;42.720;23.252;2022-12-07T02:08:41;44.47;;;21.65;;
20619;SDS011;10469;42.720;23.252;2022-12-07T02:11:07;40.13;;;21.63;;
20619;SDS011;10469;42.720;23.252;2022-12-07T02:13:35;38.00;;;20.58;;
20619;SDS011;10469;42.720;23.252;2022-12-07T02:16:12;38.28;;;21.55;;
20619;SDS011;10469;42.720;23.252;2022-12-07T02:19:05;42.70;;;20.85;;
20619;SDS011;10469;42.720;23.252;2022-12-07T02:24:38;40.25;;;20.13;;
20619;SDS011;10469;42.720;23.252;2022-12-07T02:30:16;42.17;;;21.63;;
20619;SDS011;10469;42.720;23.252;2022-12-07T02:32:58;40.78;;;21.92;;
20619;SDS011;10469;42.720;23.252;2022-12-07T02:35:35;42.22;;;22.20;;
20619;SDS011;10469;42.720;23.252;2022-12-07T02:38:05;42.60;;;21.55;;
20619;SDS011;10469;42.720;23.252;2022-12-07T02:40:40;41.57;;;22.30;;
20619;SDS011;10469;42.720;23.252;2022-12-07T02:43:12;39.42;;;22.15;;
20619;SDS011;10469;42.720;23.252;2022-12-07T02:45:42;43.92;;;21.63;;
20619;SDS011;10469;42.720;23.252;2022-12-07T02:48:11;40.50;;;22.35;;
20619;SDS011;10469;42.720;23.252;2022-12-07T02:50:38;36.83;;;21.48;;
20619;SDS011;10469;42.720;23.252;2022-12-07T02:53:04;38.10;;;20.50;;
20619;SDS011;10469;42.720;23.252;2022-12-07T02:55:39;45.03;;;21.50;;
20619;SDS011;10469;42.720;23.252;2022-12-07T03:01:00;35.22;;;20.67;;
20619;SDS011;10469;42.720;23.252;2022-12-07T03:03:56;41.85;;;20.25;;
20619;SDS011;10469;42.720;23.252;2022-12-07T03:06:35;40.45;;;21.65;;
20619;SDS011;10469;42.720;23.252;2022-12-07T03:18:18;39.13;;;20.30;;
20619;SDS011;10469;42.720;23.252;2022-12-07T03:20:46;37.80;;;21.42;;
20619;SDS011;10469;42.720;23.252;2022-12-07T03:23:16;40.53;;;19.98;;
20619;SDS011;10469;42.720;23.252;2022-12-07T03:25:45;41.70;;;21.58;;
20619;SDS011;10469;42.720;23.252;2022-12-07T03:28:15;45.33;;;21.20;;
20619;SDS011;10469;42.720;23.252;2022-12-07T03:30:45;39.45;;;20.95;;
20619;SDS011;10469;42.720;23.252;2022-12-07T03:33:18;39.10;;;21.47;;
20619;SDS011;10469;42.720;23.252;2022-12-07T03:35:48;40.65;;;20.23;;
20619;SDS011;10469;42.720;23.252;2022-12-07T03:43:48;36.85;;;19.80;;
20619;SDS011;10469;42.720;23.252;2022-12-07T03:51:36;40.10;;;22.55;;
20619;SDS011;10469;42.720;23.252;2022-12-07T03:57:02;37.40;;;21.83;;
20619;SDS011;10469;42.720;23.252;2022-12-07T03:59:30;41.80;;;22.10;;
20619;SDS011;10469;42.720;23.252;2022-12-07T04:01:56;39.05;;;21.70;;
20619;SDS011;10469;42.720;23.252;2022-12-07T04:04:27;43.42;;;20.83;;
20619;SDS011;10469;42.720;23.252;2022-12-07T04:06:53;44.17;;;22.10;;
20619;SDS011;10469;42.720;23.252;2022-12-07T04:09:19;46.00;;;23.55;;
20619;SDS011;10469;42.720;23.252;2022-12-07T04:11:44;43.17;;;22.73;;
20619;SDS011;10469;42.720;23.252;2022-12-07T04:14:10;42.17;;;23.88;;
20619;SDS011;10469;42.720;23.252;2022-12-07T04:16:48;43.10;;;22.83;;
20619;SDS011;10469;42.720;23.252;2022-12-07T04:19:16;45.15;;;23.15;;
20619;SDS011;10469;42.720;23.252;2022-12-07T04:21:42;44.63;;;23.00;;
20619;SDS011;10469;42.720;23.252;2022-12-07T04:24:08;43.47;;;23.67;;
20619;SDS011;10469;42.720;23.252;2022-12-07T04:26:34;42.25;;;22.08;;
20619;SDS011;10469;42.720;23.252;2022-12-07T04:29:00;41.75;;;22.30;;
20619;SDS011;10469;42.720;23.252;2022-12-07T04:31:25;48.08;;;23.00;;
20619;SDS011;10469;42.720;23.252;2022-12-07T04:33:51;45.28;;;23.08;;
20619;SDS011;10469;42.720;23.252;2022-12-07T04:36:16;47.42;;;23.77;;
20619;SDS011;10469;42.720;23.252;2022-12-07T04:38:42;50.58;;;22.58;;
20619;SDS011;10469;42.720;23.252;2022-12-07T04:41:08;54.65;;;24.05;;
20619;SDS011;10469;42.720;23.252;2022-12-07T04:43:34;49.30;;;22.13;;
20619;SDS011;10469;42.720;23.252;2022-12-07T04:46:00;48.40;;;23.27;;
20619;SDS011;10469;42.720;23.252;2022-12-07T04:48:26;39.40;;;22.13;;
20619;SDS011;10469;42.720;23.252;2022-12-07T04:50:51;44.25;;;22.40;;
20619;SDS011;10469;42.720;23.252;2022-12-07T04:53:17;49.08;;;24.63;;
20619;SDS011;10469;42.720;23.252;2022-12-07T04:55:43;50.25;;;24.92;;
20619;SDS011;10469;42.720;23.252;2022-12-07T04:58:10;48.10;;;25.83;;
20619;SDS011;10469;42.720;23.252;2022-12-07T05:00:36;42.30;;;23.02;;
20619;SDS011;10469;42.720;23.252;2022-12-07T05:03:02;45.25;;;23.20;;
20619;SDS011;10469;42.720;23.252;2022-12-07T05:05:27;47.75;;;24.52;;
20619;SDS011;10469;42.720;23.252;2022-12-07T05:07:53;47.13;;;23.60;;
20619;SDS011;10469;42.720;23.252;2022-12-07T05:10:19;48.80;;;24.83;;
20619;SDS011;10469;42.720;23.252;2022-12-07T05:12:44;44.83;;;25.23;;
20619;SDS011;10469;42.720;23.252;2022-12-07T05:15:10;45.72;;;24.00;;
20619;SDS011;10469;42.720;23.252;2022-12-07T05:17:37;40.42;;;22.25;;
20619;SDS011;10469;42.720;23.252;2022-12-07T05:20:02;46.85;;;24.65;;
20619;SDS011;10469;42.720;23.252;2022-12-07T05:22:28;44.85;;;22.80;;
20619;SDS011;10469;42.720;23.252;2022-12-07T05:24:54;46.88;;;24.70;;
20619;SDS011;10469;42.720;23.252;2022-12-07T05:27:20;44.10;;;23.60;;
20619;SDS011;10469;42.720;23.252;2022-12-07T05:29:45;47.92;;;24.63;;
20619;SDS011;10469;42.720;23.252;2022-12-07T05:32:11;45.15;;;24.10;;
20619;SDS011;10469;42.720;23.252;2022-12-07T05:34:37;47.67;;;24.23;;
20619;SDS011;10469;42.720;23.252;2022-12-07T05:37:02;43.85;;;24.20;;
20619;SDS011;10469;42.720;23.252;2022-12-07T05:39:28;44.58;;;24.70;;
20619;SDS011;10469;42.720;23.252;2022-12-07T05:41:54;44.90;;;24.80;;
20619;SDS011;10469;42.720;23.252;2022-12-07T05:44:38;46.47;;;25.42;;
20619;SDS011;10469;42.720;23.252;2022-12-07T05:47:08;45.78;;;24.52;;
20619;SDS011;10469;42.720;23.252;2022-12-07T05:49:34;49.30;;;25.25;;
20619;SDS011;10469;42.720;23.252;2022-12-07T05:52:00;50.47;;;27.02;;
20619;SDS011;10469;42.720;23.252;2022-12-07T05:54:25;53.58;;;24.92;;
20619;SDS011;10469;42.720;23.252;2022-12-07T05:56:51;49.20;;;24.48;;
20619;SDS011;10469;42.720;23.252;2022-12-07T05:59:16;46.17;;;24.17;;
20619;SDS011;10469;42.720;23.252;2022-12-07T06:01:51;49.20;;;25.40;;
20619;SDS011;10469;42.720;23.252;2022-12-07T06:04:17;50.70;;;25.80;;
20619;SDS011;10469;42.720;23.252;2022-12-07T06:06:43;43.85;;;25.00;;
20619;SDS011;10469;42.720;23.252;2022-12-07T06:09:09;47.20;;;25.92;;
20619;SDS011;10469;42.720;23.252;2022-12-07T06:11:35;45.35;;;25.25;;
20619;SDS011;10469;42.720;23.252;2022-12-07T06:14:18;54.38;;;27.58;;
20619;SDS011;10469;42.720;23.252;2022-12-07T06:16:44;50.05;;;26.15;;
20619;SDS011;10469;42.720;23.252;2022-12-07T06:19:10;60.70;;;27.48;;
20619;SDS011;10469;42.720;23.252;2022-12-07T06:21:36;50.55;;;25.33;;
20619;SDS011;10469;42.720;23.252;2022-12-07T06:24:01;55.28;;;27.20;;
20619;SDS011;10469;42.720;23.252;2022-12-07T06:26:27;60.22;;;28.00;;
20619;SDS011;10469;42.720;23.252;2022-12-07T06:28:52;57.90;;;28.23;;
20619;SDS011;10469;42.720;23.252;2022-12-07T06:31:18;55.65;;;28.35;;
20619;SDS011;10469;42.720;23.252;2022-12-07T06:33:43;58.28;;;29.90;;
20619;SDS011;10469;42.720;23.252;2022-12-07T06:36:09;56.78;;;28.15;;
20619;SDS011;10469;42.720;23.252;2022-12-07T06:38:35;53.60;;;28.80;;
20619;SDS011;10469;42.720;23.252;2022-12-07T06:41:01;61.45;;;31.13;;
20619;SDS011;10469;42.720;23.252;2022-12-07T06:43:26;51.50;;;27.50;;
20619;SDS011;10469;42.720;23.252;2022-12-07T06:45:52;56.33;;;28.13;;
20619;SDS011;10469;42.720;23.252;2022-12-07T06:48:18;55.00;;;28.20;;
20619;SDS011;10469;42.720;23.252;2022-12-07T06:50:44;63.30;;;28.67;;
20619;SDS011;10469;42.720;23.252;2022-12-07T06:53:10;56.05;;;27.17;;
20619;SDS011;10469;42.720;23.252;2022-12-07T06:55:35;59.90;;;27.85;;
20619;SDS011;10469;42.720;23.252;2022-12-07T06:58:01;54.80;;;27.42;;
20619;SDS011;10469;42.720;23.252;2022-12-07T07:00:27;58.95;;;30.40;;
20619;SDS011;10469;42.720;23.252;2022-12-07T07:02:53;59.33;;;30.77;;
20619;SDS011;10469;42.720;23.252;2022-12-07T07:05:19;57.78;;;29.80;;
20619;SDS011;10469;42.720;23.252;2022-12-07T07:07:48;57.88;;;28.05;;
20619;SDS011;10469;42.720;23.252;2022-12-07T07:10:14;51.67;;;27.35;;
20619;SDS011;10469;42.720;23.252;2022-12-07T07:12:40;54.25;;;26.45;;
20619;SDS011;10469;42.720;23.252;2022-12-07T07:15:05;53.05;;;27.92;;
20619;SDS011;10469;42.720;23.252;2022-12-07T07:17:31;59.47;;;28.90;;
20619;SDS011;10469;42.720;23.252;2022-12-07T07:19:57;49.15;;;27.02;;
20619;SDS011;10469;42.720;23.252;2022-12-07T07:22:22;52.10;;;27.35;;
20619;SDS011;10469;42.720;23.252;2022-12-07T07:24:48;50.22;;;27.58;;
20619;SDS011;10469;42.720;23.252;2022-12-07T07:27:13;59.28;;;29.42;;
20619;SDS011;10469;42.720;23.252;2022-12-07T07:29:39;52.30;;;28.13;;
20619;SDS011;10469;42.720;23.252;2022-12-07T07:32:04;57.95;;;28.25;;
20619;SDS011;10469;42.720;23.252;2022-12-07T07:34:30;56.30;;;28.80;;
20619;SDS011;10469;42.720;23.252;2022-12-07T07:36:55;53.08;;;28.25;;
20619;SDS011;10469;42.720;23.252;2022-12-07T07:39:21;52.10;;;27.48;;
20619;SDS011;10469;42.720;23.252;2022-12-07T07:41:46;55.05;;;29.50;;
20619;SDS011;10469;42.720;23.252;2022-12-07T07:44:12;53.85;;;29.27;;
20619;SDS011;10469;42.720;23.252;2022-12-07T07:46:37;58.13;;;29.25;;
20619;SDS011;10469;42.720;23.252;2022-12-07T07:49:03;47.35;;;25.67;;
20619;SDS011;10469;42.720;23.252;2022-12-07T07:51:29;47.88;;;27.40;;
20619;SDS011;10469;42.720;23.252;2022-12-07T07:53:54;51.70;;;27.73;;
20619;SDS011;10469;42.720;23.252;2022-12-07T07:56:20;51.53;;;29.48;;
20619;SDS011;10469;42.720;23.252;2022-12-07T07:58:45;62.03;;;32.17;;
20619;SDS011;10469;42.720;23.252;2022-12-07T08:01:11;62.97;;;29.50;;
20619;SDS011;10469;42.720;23.252;2022-12-07T08:03:38;60.35;;;30.65;;
20619;SDS011;10469;42.720;23.252;2022-12-07T08:06:04;47.20;;;26.90;;
20619;SDS011;10469;42.720;23.252;2022-12-07T08:08:30;52.08;;;26.08;;
20619;SDS011;10469;42.720;23.252;2022-12-07T08:10:56;47.50;;;25.02;;
20619;SDS011;10469;42.720;23.252;2022-12-07T08:13:25;49.58;;;25.60;;
20619;SDS011;10469;42.720;23.252;2022-12-07T08:15:51;44.17;;;24.25;;
20619;SDS011;10469;42.720;23.252;2022-12-07T08:18:16;45.60;;;25.58;;
20619;SDS011;10469;42.720;23.252;2022-12-07T08:20:42;43.97;;;25.08;;
20619;SDS011;10469;42.720;23.252;2022-12-07T08:23:08;51.65;;;25.92;;
20619;SDS011;10469;42.720;23.252;2022-12-07T08:25:35;52.60;;;26.35;;
20619;SDS011;10469;42.720;23.252;2022-12-07T08:28:01;46.65;;;25.38;;
20619;SDS011;10469;42.720;23.252;2022-12-07T08:30:28;45.65;;;25.63;;
20619;SDS011;10469;42.720;23.252;2022-12-07T08:32:54;41.53;;;25.02;;
20619;SDS011;10469;42.720;23.252;2022-12-07T08:35:20;49.30;;;25.25;;
20619;SDS011;10469;42.720;23.252;2022-12-07T08:37:46;42.55;;;25.95;;
20619;SDS011;10469;42.720;23.252;2022-12-07T08:40:12;41.05;;;24.27;;
20619;SDS011;10469;42.720;23.252;2022-12-07T08:42:43;45.00;;;25.30;;
20619;SDS011;10469;42.720;23.252;2022-12-07T08:45:13;51.72;;;26.63;;
20619;SDS011;10469;42.720;23.252;2022-12-07T08:47:41;49.15;;;26.88;;
20619;SDS011;10469;42.720;23.252;2022-12-07T08:50:10;41.55;;;26.30;;
20619;SDS011;10469;42.720;23.252;2022-12-07T08:52:37;53.90;;;27.40;;
20619;SDS011;10469;42.720;23.252;2022-12-07T08:55:05;50.05;;;27.80;;
20619;SDS011;10469;42.720;23.252;2022-12-07T08:57:31;47.90;;;26.67;;
20619;SDS011;10469;42.720;23.252;2022-12-07T09:00:00;56.78;;;28.58;;
20619;SDS011;10469;42.720;23.252;2022-12-07T09:02:25;56.97;;;29.63;;
20619;SDS011;10469;42.720;23.252;2022-12-07T09:04:51;62.70;;;31.17;;
20619;SDS011;10469;42.720;23.252;2022-12-07T09:07:16;51.45;;;28.95;;
20619;SDS011;10469;42.720;23.252;2022-12-07T09:09:42;54.03;;;30.33;;
20619;SDS011;10469;42.720;23.252;2022-12-07T09:12:08;58.20;;;31.83;;
20619;SDS011;10469;42.720;23.252;2022-12-07T09:14:33;64.93;;;32.20;;
20619;SDS011;10469;42.720;23.252;2022-12-07T09:17:06;57.25;;;29.45;;
20619;SDS011;10469;42.720;23.252;2022-12-07T09:19:38;54.80;;;29.20;;
20619;SDS011;10469;42.720;23.252;2022-12-07T09:22:04;52.45;;;30.13;;
20619;SDS011;10469;42.720;23.252;2022-12-07T09:24:30;60.35;;;30.27;;
20619;SDS011;10469;42.720;23.252;2022-12-07T09:26:57;50.20;;;29.98;;
20619;SDS011;10469;42.720;23.252;2022-12-07T09:29:23;56.70;;;29.35;;
20619;SDS011;10469;42.720;23.252;2022-12-07T09:31:49;50.58;;;28.55;;
20619;SDS011;10469;42.720;23.252;2022-12-07T09:34:14;49.95;;;28.17;;
20619;SDS011;10469;42.720;23.252;2022-12-07T09:36:40;53.47;;;29.70;;
20619;SDS011;10469;42.720;23.252;2022-12-07T09:39:07;55.95;;;29.92;;
20619;SDS011;10469;42.720;23.252;2022-12-07T09:41:32;60.35;;;31.55;;
20619;SDS011;10469;42.720;23.252;2022-12-07T09:44:02;54.35;;;32.42;;
20619;SDS011;10469;42.720;23.252;2022-12-07T09:47:01;56.90;;;31.38;;
20619;SDS011;10469;42.720;23.252;2022-12-07T09:50:03;58.00;;;32.35;;
20619;SDS011;10469;42.720;23.252;2022-12-07T09:52:31;51.47;;;31.30;;
20619;SDS011;10469;42.720;23.252;2022-12-07T09:54:57;58.50;;;33.83;;
20619;SDS011;10469;42.720;23.252;2022-12-07T09:57:32;55.25;;;32.92;;
20619;SDS011;10469;42.720;23.252;2022-12-07T10:00:00;55.58;;;32.40;;
20619;SDS011;10469;42.720;23.252;2022-12-07T10:05:07;49.40;;;29.77;;
20619;SDS011;10469;42.720;23.252;2022-12-07T10:07:38;53.42;;;29.25;;
20619;SDS011;10469;42.720;23.252;2022-12-07T10:10:06;49.97;;;29.17;;
20619;SDS011;10469;42.720;23.252;2022-12-07T10:15:20;56.28;;;29.75;;
20619;SDS011;10469;42.720;23.252;2022-12-07T10:17:49;49.90;;;29.75;;
20619;SDS011;10469;42.720;23.252;2022-12-07T10:20:26;44.10;;;28.98;;
20619;SDS011;10469;42.720;23.252;2022-12-07T10:23:00;50.47;;;29.40;;
20619;SDS011;10469;42.720;23.252;2022-12-07T10:25:34;49.38;;;29.73;;
20619;SDS011;10469;42.720;23.252;2022-12-07T10:30:33;49.00;;;28.73;;
20619;SDS011;10469;42.720;23.252;2022-12-07T10:36:34;56.45;;;29.05;;
20619;SDS011;10469;42.720;23.252;2022-12-07T10:41:28;52.97;;;27.00;;
20619;SDS011;10469;42.720;23.252;2022-12-07T10:43:54;45.85;;;26.00;;
20619;SDS011;10469;42.720;23.252;2022-12-07T10:57:19;53.35;;;26.50;;
20619;SDS011;10469;42.720;23.252;2022-12-07T10:59:58;41.75;;;24.42;;
20619;SDS011;10469;42.720;23.252;2022-12-07T11:05:50;49.85;;;25.98;;
20619;SDS011;10469;42.720;23.252;2022-12-07T11:11:04;40.55;;;25.33;;
20619;SDS011;10469;42.720;23.252;2022-12-07T11:14:01;51.85;;;26.67;;
20619;SDS011;10469;42.720;23.252;2022-12-07T11:22:03;47.38;;;28.55;;
20619;SDS011;10469;42.720;23.252;2022-12-07T11:27:27;63.33;;;31.33;;
20619;SDS011;10469;42.720;23.252;2022-12-07T11:32:34;48.22;;;29.40;;
20619;SDS011;10469;42.720;23.252;2022-12-07T11:35:11;50.30;;;28.52;;
20619;SDS011;10469;42.720;23.252;2022-12-07T11:37:49;52.40;;;28.95;;
20619;SDS011;10469;42.720;23.252;2022-12-07T11:40:22;52.55;;;30.10;;
20619;SDS011;10469;42.720;23.252;2022-12-07T11:42:59;58.92;;;28.75;;
20619;SDS011;10469;42.720;23.252;2022-12-07T11:45:37;44.60;;;26.42;;
20619;SDS011;10469;42.720;23.252;2022-12-07T11:50:47;47.55;;;25.85;;
20619;SDS011;10469;42.720;23.252;2022-12-07T11:53:19;42.08;;;23.90;;
20619;SDS011;10469;42.720;23.252;2022-12-07T11:56:32;34.42;;;22.30;;
20619;SDS011;10469;42.720;23.252;2022-12-07T12:03:48;42.28;;;22.48;;
20619;SDS011;10469;42.720;23.252;2022-12-07T12:06:16;35.13;;;21.25;;
20619;SDS011;10469;42.720;23.252;2022-12-07T12:08:50;38.28;;;21.63;;
20619;SDS011;10469;42.720;23.252;2022-12-07T12:19:26;43.08;;;18.83;;
20619;SDS011;10469;42.720;23.252;2022-12-07T12:21:54;31.90;;;17.55;;
20619;SDS011;10469;42.720;23.252;2022-12-07T12:24:25;31.05;;;18.67;;
20619;SDS011;10469;42.720;23.252;2022-12-07T12:26:57;35.83;;;17.50;;
20619;SDS011;10469;42.720;23.252;2022-12-07T12:29:40;33.58;;;17.33;;
20619;SDS011;10469;42.720;23.252;2022-12-07T12:32:16;27.02;;;17.25;;
20619;SDS011;10469;42.720;23.252;2022-12-07T12:38:20;27.90;;;17.63;;
20619;SDS011;10469;42.720;23.252;2022-12-07T12:42:52;36.25;;;16.83;;
20619;SDS011;10469;42.720;23.252;2022-12-07T12:50:30;24.77;;;15.88;;
20619;SDS011;10469;42.720;23.252;2022-12-07T12:52:58;26.80;;;15.70;;
20619;SDS011;10469;42.720;23.252;2022-12-07T12:55:29;29.38;;;17.80;;
20619;SDS011;10469;42.720;23.252;2022-12-07T13:00:42;26.23;;;15.50;;
20619;SDS011;10469;42.720;23.252;2022-12-07T13:03:20;30.40;;;16.25;;
20619;SDS011;10469;42.720;23.252;2022-12-07T13:06:16;30.13;;;16.63;;
20619;SDS011;10469;42.720;23.252;2022-12-07T13:08:44;34.97;;;16.10;;
20619;SDS011;10469;42.720;23.252;2022-12-07T13:11:29;29.60;;;16.23;;
20619;SDS011;10469;42.720;23.252;2022-12-07T13:17:01;31.70;;;15.83;;
20619;SDS011;10469;42.720;23.252;2022-12-07T13:19:52;28.33;;;14.63;;
20619;SDS011;10469;42.720;23.252;2022-12-07T13:27:38;22.60;;;11.70;;
20619;SDS011;10469;42.720;23.252;2022-12-07T13:30:26;23.27;;;12.68;;
20619;SDS011;10469;42.720;23.252;2022-12-07T13:32:55;26.48;;;13.52;;
20619;SDS011;10469;42.720;23.252;2022-12-07T13:35:29;24.02;;;14.95;;
20619;SDS011;10469;42.720;23.252;2022-12-07T13:38:01;27.73;;;15.45;;
20619;SDS011;10469;42.720;23.252;2022-12-07T13:40:29;32.85;;;15.98;;
20619;SDS011;10469;42.720;23.252;2022-12-07T13:42:58;31.02;;;16.27;;
20619;SDS011;10469;42.720;23.252;2022-12-07T13:45:27;31.50;;;16.02;;
20619;SDS011;10469;42.720;23.252;2022-12-07T13:48:16;27.95;;;16.42;;
20619;SDS011;10469;42.720;23.252;2022-12-07T13:50:57;30.73;;;14.43;;
20619;SDS011;10469;42.720;23.252;2022-12-07T13:53:24;30.55;;;15.02;;
20619;SDS011;10469;42.720;23.252;2022-12-07T13:55:55;29.48;;;15.65;;
20619;SDS011;10469;42.720;23.252;2022-12-07T13:58:24;33.28;;;15.82;;
20619;SDS011;10469;42.720;23.252;2022-12-07T14:00:51;33.90;;;16.17;;
20619;SDS011;10469;42.720;23.252;2022-12-07T14:05:43;27.70;;;15.73;;
20619;SDS011;10469;42.720;23.252;2022-12-07T14:16:01;34.75;;;17.30;;
20619;SDS011;10469;42.720;23.252;2022-12-07T14:18:28;27.55;;;17.05;;
20619;SDS011;10469;42.720;23.252;2022-12-07T14:21:06;38.13;;;17.75;;
20619;SDS011;10469;42.720;23.252;2022-12-07T14:23:34;39.50;;;16.67;;
20619;SDS011;10469;42.720;23.252;2022-12-07T14:26:05;28.63;;;17.13;;
20619;SDS011;10469;42.720;23.252;2022-12-07T14:28:35;30.77;;;16.15;;
20619;SDS011;10469;42.720;23.252;2022-12-07T14:31:02;31.85;;;15.23;;
20619;SDS011;10469;42.720;23.252;2022-12-07T14:33:33;27.30;;;15.25;;
20619;SDS011;10469;42.720;23.252;2022-12-07T14:35:58;29.67;;;16.77;;
20619;SDS011;10469;42.720;23.252;2022-12-07T14:38:24;32.40;;;16.25;;
20619;SDS011;10469;42.720;23.252;2022-12-07T14:40:51;38.80;;;16.50;;
20619;SDS011;10469;42.720;23.252;2022-12-07T14:43:18;30.30;;;17.05;;
20619;SDS011;10469;42.720;23.252;2022-12-07T14:45:44;34.38;;;16.20;;
20619;SDS011;10469;42.720;23.252;2022-12-07T14:48:11;33.40;;;15.95;;
20619;SDS011;10469;42.720;23.252;2022-12-07T14:50:39;36.38;;;16.50;;
20619;SDS011;10469;42.720;23.252;2022-12-07T14:53:12;30.95;;;15.27;;
20619;SDS011;10469;42.720;23.252;2022-12-07T14:55:40;29.65;;;16.80;;
20619;SDS011;10469;42.720;23.252;2022-12-07T14:58:06;29.75;;;15.75;;
20619;SDS011;10469;42.720;23.252;2022-12-07T15:00:34;29.98;;;16.02;;
20619;SDS011;10469;42.720;23.252;2022-12-07T15:02:59;36.25;;;17.75;;
20619;SDS011;10469;42.720;23.252;2022-12-07T15:05:25;29.45;;;16.98;;
20619;SDS011;10469;42.720;23.252;2022-12-07T15:07:50;47.97;;;20.08;;
20619;SDS011;10469;42.720;23.252;2022-12-07T15:10:21;44.58;;;20.20;;
20619;SDS011;10469;42.720;23.252;2022-12-07T15:12:56;43.63;;;19.27;;
20619;SDS011;10469;42.720;23.252;2022-12-07T15:15:41;39.20;;;20.00;;
20619;SDS011;10469;42.720;23.252;2022-12-07T15:18:07;39.95;;;19.52;;
20619;SDS011;10469;42.720;23.252;2022-12-07T15:20:32;42.72;;;21.27;;
20619;SDS011;10469;42.720;23.252;2022-12-07T15:22:58;47.75;;;19.02;;
20619;SDS011;10469;42.720;23.252;2022-12-07T15:25:24;40.33;;;19.90;;
20619;SDS011;10469;42.720;23.252;2022-12-07T15:27:49;38.70;;;19.92;;
20619;SDS011;10469;42.720;23.252;2022-12-07T15:30:15;39.22;;;19.80;;
20619;SDS011;10469;42.720;23.252;2022-12-07T15:32:40;30.35;;;17.10;;
20619;SDS011;10469;42.720;23.252;2022-12-07T15:35:06;42.75;;;19.80;;
20619;SDS011;10469;42.720;23.252;2022-12-07T15:37:32;34.38;;;19.88;;
20619;SDS011;10469;42.720;23.252;2022-12-07T15:39:57;47.35;;;21.55;;
20619;SDS011;10469;42.720;23.252;2022-12-07T15:42:23;52.08;;;24.50;;
20619;SDS011;10469;42.720;23.252;2022-12-07T15:44:48;42.53;;;22.48;;
20619;SDS011;10469;42.720;23.252;2022-12-07T15:47:39;39.10;;;20.88;;
20619;SDS011;10469;42.720;23.252;2022-12-07T15:50:07;48.00;;;23.38;;
20619;SDS011;10469;42.720;23.252;2022-12-07T15:52:35;61.17;;;28.02;;
20619;SDS011;10469;42.720;23.252;2022-12-07T15:55:01;37.08;;;18.45;;
20619;SDS011;10469;42.720;23.252;2022-12-07T15:57:30;38.42;;;17.15;;
20619;SDS011;10469;42.720;23.252;2022-12-07T15:59:56;42.45;;;21.00;;
20619;SDS011;10469;42.720;23.252;2022-12-07T16:02:22;40.30;;;18.92;;
20619;SDS011;10469;42.720;23.252;2022-12-07T16:04:48;42.08;;;21.65;;
20619;SDS011;10469;42.720;23.252;2022-12-07T16:07:15;45.67;;;19.45;;
20619;SDS011;10469;42.720;23.252;2022-12-07T16:09:44;34.80;;;17.80;;
20619;SDS011;10469;42.720;23.252;2022-12-07T16:12:11;35.78;;;17.08;;
20619;SDS011;10469;42.720;23.252;2022-12-07T16:14:39;28.05;;;14.50;;
20619;SDS011;10469;42.720;23.252;2022-12-07T16:17:05;28.88;;;16.92;;
20619;SDS011;10469;42.720;23.252;2022-12-07T16:19:32;43.45;;;21.88;;
20619;SDS011;10469;42.720;23.252;2022-12-07T16:21:58;58.17;;;25.13;;
20619;SDS011;10469;42.720;23.252;2022-12-07T16:24:24;70.68;;;25.65;;